sensor_id;sensor_type;location;lat;lon;timestamp;temperature;humidity
1592;DHT22;789;51.612;7.510;2023-07-31T00:00:33;17.70;1.00
1592;DHT22;789;51.612;7.510;2023-07-31T00:03:00;17.70;1.00
1592;DHT22;789;51.612;7.510;2023-07-31T00:05:28;17.70;1.00
1592;DHT22;789;51.612;7.510;2023-07-31T00:07:54;17.90;1.00
1592;DHT22;789;51.612;7.510;2023-07-31T00:10:22;17.80;1.00
1592;DHT22;789;51.612;7.510;2023-07-31T00:12:49;17.80;1.00
1592;DHT22;789;51.612;7.510;2023-07-31T00:15:15;17.80;1.00
1592;DHT22;789;51.612;7.510;2023-07-31T00:17:44;17.80;1.00
1592;DHT22;789;51.612;7.510;2023-07-31T00:20:11;17.70;1.00
1592;DHT22;789;51.612;7.510;2023-07-31T00:22:38;17.70;1.00
1592;DHT22;789;51.612;7.510;2023-07-31T00:25:05;17.70;1.00
1592;DHT22;789;51.612;7.510;2023-07-31T00:27:32;17.70;1.00
1592;DHT22;789;51.612;7.510;2023-07-31T00:29:58;17.70;1.00
1592;DHT22;789;51.612;7.510;2023-07-31T00:32:25;17.60;1.00
1592;DHT22;789;51.612;7.510;2023-07-31T00:34:56;17.60;1.00
1592;DHT22;789;51.612;7.510;2023-07-31T00:37:25;17.70;1.00
1592;DHT22;789;51.612;7.510;2023-07-31T00:39:52;17.70;1.00
1592;DHT22;789;51.612;7.510;2023-07-31T00:42:19;17.60;1.00
1592;DHT22;789;51.612;7.510;2023-07-31T00:44:54;17.60;1.00
1592;DHT22;789;51.612;7.510;2023-07-31T00:47:21;17.60;1.00
1592;DHT22;789;51.612;7.510;2023-07-31T00:49:48;17.70;1.00
1592;DHT22;789;51.612;7.510;2023-07-31T00:52:17;17.60;1.00
1592;DHT22;789;51.612;7.510;2023-07-31T00:54:44;17.70;1.00
1592;DHT22;789;51.612;7.510;2023-07-31T00:57:11;17.70;1.00
1592;DHT22;789;51.612;7.510;2023-07-31T00:59:38;17.70;1.00
1592;DHT22;789;51.612;7.510;2023-07-31T01:02:13;17.70;1.00
1592;DHT22;789;51.612;7.510;2023-07-31T01:04:43;17.60;1.00
1592;DHT22;789;51.612;7.510;2023-07-31T01:07:14;17.50;1.00
1592;DHT22;789;51.612;7.510;2023-07-31T01:09:52;17.50;1.00
1592;DHT22;789;51.612;7.510;2023-07-31T01:12:24;17.50;1.00
1592;DHT22;789;51.612;7.510;2023-07-31T01:15:02;17.40;1.00
1592;DHT22;789;51.612;7.510;2023-07-31T01:17:29;17.40;1.00
1592;DHT22;789;51.612;7.510;2023-07-31T01:20:00;17.30;1.00
1592;DHT22;789;51.612;7.510;2023-07-31T01:22:39;17.30;1.00
1592;DHT22;789;51.612;7.510;2023-07-31T01:25:24;17.30;1.00
1592;DHT22;789;51.612;7.510;2023-07-31T01:28:02;17.30;1.00
1592;DHT22;789;51.612;7.510;2023-07-31T01:30:33;17.30;1.00
1592;DHT22;789;51.612;7.510;2023-07-31T01:33:01;17.30;1.00
1592;DHT22;789;51.612;7.510;2023-07-31T01:35:32;17.30;1.00
1592;DHT22;789;51.612;7.510;2023-07-31T01:37:59;17.40;1.00
1592;DHT22;789;51.612;7.510;2023-07-31T01:40:26;17.40;1.00
1592;DHT22;789;51.612;7.510;2023-07-31T01:43:28;17.40;1.00
1592;DHT22;789;51.612;7.510;2023-07-31T01:45:54;17.30;1.00
1592;DHT22;789;51.612;7.510;2023-07-31T01:48:21;17.40;1.00
1592;DHT22;789;51.612;7.510;2023-07-31T01:50:48;17.40;1.00
1592;DHT22;789;51.612;7.510;2023-07-31T01:53:15;17.40;1.00
1592;DHT22;789;51.612;7.510;2023-07-31T01:55:41;17.50;1.00
1592;DHT22;789;51.612;7.510;2023-07-31T01:58:09;17.40;1.00
1592;DHT22;789;51.612;7.510;2023-07-31T02:00:37;17.40;1.00
1592;DHT22;789;51.612;7.510;2023-07-31T02:03:03;17.50;1.00
1592;DHT22;789;51.612;7.510;2023-07-31T02:05:31;17.40;1.00
1592;DHT22;789;51.612;7.510;2023-07-31T02:07:58;17.50;1.00
1592;DHT22;789;51.612;7.510;2023-07-31T02:10:24;17.50;1.00
1592;DHT22;789;51.612;7.510;2023-07-31T02:12:51;17.50;1.00
1592;DHT22;789;51.612;7.510;2023-07-31T02:15:18;17.50;1.00
1592;DHT22;789;51.612;7.510;2023-07-31T02:17:46;17.50;1.00
1592;DHT22;789;51.612;7.510;2023-07-31T02:20:13;17.50;1.00
1592;DHT22;789;51.612;7.510;2023-07-31T02:22:40;17.50;1.00
1592;DHT22;789;51.612;7.510;2023-07-31T02:25:08;17.50;1.00
1592;DHT22;789;51.612;7.510;2023-07-31T02:27:35;17.50;1.00
1592;DHT22;789;51.612;7.510;2023-07-31T02:30:03;17.50;1.00
1592;DHT22;789;51.612;7.510;2023-07-31T02:32:33;17.50;1.00
1592;DHT22;789;51.612;7.510;2023-07-31T02:35:01;17.60;1.00
1592;DHT22;789;51.612;7.510;2023-07-31T02:37:28;17.60;1.00
1592;DHT22;789;51.612;7.510;2023-07-31T02:40:00;17.60;1.00
1592;DHT22;789;51.612;7.510;2023-07-31T02:42:27;17.50;1.00
1592;DHT22;789;51.612;7.510;2023-07-31T02:44:54;17.50;1.00
1592;DHT22;789;51.612;7.510;2023-07-31T02:47:21;17.50;1.00
1592;DHT22;789;51.612;7.510;2023-07-31T02:49:49;17.40;1.00
1592;DHT22;789;51.612;7.510;2023-07-31T02:52:18;17.50;1.00
1592;DHT22;789;51.612;7.510;2023-07-31T02:54:45;17.50;1.00
1592;DHT22;789;51.612;7.510;2023-07-31T02:57:12;17.50;1.00
1592;DHT22;789;51.612;7.510;2023-07-31T02:59:38;17.40;1.00
1592;DHT22;789;51.612;7.510;2023-07-31T03:02:05;17.40;1.00
1592;DHT22;789;51.612;7.510;2023-07-31T03:04:32;17.40;1.00
1592;DHT22;789;51.612;7.510;2023-07-31T03:06:59;17.50;1.00
1592;DHT22;789;51.612;7.510;2023-07-31T03:09:27;17.50;1.00
1592;DHT22;789;51.612;7.510;2023-07-31T03:11:54;17.50;1.00
1592;DHT22;789;51.612;7.510;2023-07-31T03:14:21;17.50;1.00
1592;DHT22;789;51.612;7.510;2023-07-31T03:16:48;17.50;1.00
1592;DHT22;789;51.612;7.510;2023-07-31T03:19:15;17.40;1.00
1592;DHT22;789;51.612;7.510;2023-07-31T03:21:42;17.40;1.00
1592;DHT22;789;51.612;7.510;2023-07-31T03:24:09;17.40;1.00
1592;DHT22;789;51.612;7.510;2023-07-31T03:26:39;17.40;1.00
1592;DHT22;789;51.612;7.510;2023-07-31T03:29:07;17.40;1.00
1592;DHT22;789;51.612;7.510;2023-07-31T03:31:33;17.40;1.00
1592;DHT22;789;51.612;7.510;2023-07-31T03:34:03;17.40;1.00
1592;DHT22;789;51.612;7.510;2023-07-31T03:36:30;17.40;1.00
1592;DHT22;789;51.612;7.510;2023-07-31T03:38:58;17.50;1.00
1592;DHT22;789;51.612;7.510;2023-07-31T03:41:24;17.60;1.00
1592;DHT22;789;51.612;7.510;2023-07-31T03:44:07;17.60;1.00
1592;DHT22;789;51.612;7.510;2023-07-31T03:46:34;17.50;1.00
1592;DHT22;789;51.612;7.510;2023-07-31T03:49:02;17.50;1.00
1592;DHT22;789;51.612;7.510;2023-07-31T03:51:29;17.50;1.00
1592;DHT22;789;51.612;7.510;2023-07-31T03:53:55;17.50;1.00
1592;DHT22;789;51.612;7.510;2023-07-31T03:56:22;17.40;1.00
1592;DHT22;789;51.612;7.510;2023-07-31T03:58:49;17.50;1.00
1592;DHT22;789;51.612;7.510;2023-07-31T04:01:19;17.50;1.00
1592;DHT22;789;51.612;7.510;2023-07-31T04:03:49;17.60;1.00
1592;DHT22;789;51.612;7.510;2023-07-31T04:06:15;17.60;1.00
1592;DHT22;789;51.612;7.510;2023-07-31T04:08:43;17.60;1.00
1592;DHT22;789;51.612;7.510;2023-07-31T04:11:10;17.60;1.00
1592;DHT22;789;51.612;7.510;2023-07-31T04:13:37;17.60;1.00
1592;DHT22;789;51.612;7.510;2023-07-31T04:16:07;17.60;1.00
1592;DHT22;789;51.612;7.510;2023-07-31T04:18:36;17.60;1.00
1592;DHT22;789;51.612;7.510;2023-07-31T04:21:02;17.70;1.00
1592;DHT22;789;51.612;7.510;2023-07-31T04:23:29;17.70;1.00
1592;DHT22;789;51.612;7.510;2023-07-31T04:25:56;17.80;1.00
1592;DHT22;789;51.612;7.510;2023-07-31T04:28:25;17.80;1.00
1592;DHT22;789;51.612;7.510;2023-07-31T04:30:52;17.80;1.00
1592;DHT22;789;51.612;7.510;2023-07-31T04:33:19;17.70;1.00
1592;DHT22;789;51.612;7.510;2023-07-31T04:35:50;17.80;1.00
1592;DHT22;789;51.612;7.510;2023-07-31T04:38:18;17.80;1.00
1592;DHT22;789;51.612;7.510;2023-07-31T04:40:46;17.80;1.00
1592;DHT22;789;51.612;7.510;2023-07-31T04:43:17;17.80;1.00
1592;DHT22;789;51.612;7.510;2023-07-31T04:45:45;17.80;1.00
1592;DHT22;789;51.612;7.510;2023-07-31T04:48:13;17.80;1.00
1592;DHT22;789;51.612;7.510;2023-07-31T04:50:42;17.80;1.00
1592;DHT22;789;51.612;7.510;2023-07-31T04:53:10;17.80;1.00
1592;DHT22;789;51.612;7.510;2023-07-31T04:55:37;17.90;1.00
1592;DHT22;789;51.612;7.510;2023-07-31T04:58:05;17.90;1.00
1592;DHT22;789;51.612;7.510;2023-07-31T05:00:32;18.00;1.00
1592;DHT22;789;51.612;7.510;2023-07-31T05:02:58;18.00;1.00
1592;DHT22;789;51.612;7.510;2023-07-31T05:05:25;18.00;1.00
1592;DHT22;789;51.612;7.510;2023-07-31T05:07:52;18.10;1.00
1592;DHT22;789;51.612;7.510;2023-07-31T05:10:20;18.10;1.00
1592;DHT22;789;51.612;7.510;2023-07-31T05:12:47;18.10;1.00
1592;DHT22;789;51.612;7.510;2023-07-31T05:15:14;18.10;1.00
1592;DHT22;789;51.612;7.510;2023-07-31T05:17:41;18.10;1.00
1592;DHT22;789;51.612;7.510;2023-07-31T05:20:08;18.10;1.00
1592;DHT22;789;51.612;7.510;2023-07-31T05:22:36;18.10;1.00
1592;DHT22;789;51.612;7.510;2023-07-31T05:25:03;18.10;1.00
1592;DHT22;789;51.612;7.510;2023-07-31T05:27:32;18.10;1.00
1592;DHT22;789;51.612;7.510;2023-07-31T05:29:59;18.10;1.00
1592;DHT22;789;51.612;7.510;2023-07-31T05:32:25;18.20;1.00
1592;DHT22;789;51.612;7.510;2023-07-31T05:34:52;18.10;1.00
1592;DHT22;789;51.612;7.510;2023-07-31T05:37:19;18.10;1.00
1592;DHT22;789;51.612;7.510;2023-07-31T05:39:46;18.20;1.00
1592;DHT22;789;51.612;7.510;2023-07-31T05:42:27;18.30;1.00
1592;DHT22;789;51.612;7.510;2023-07-31T05:44:55;18.40;1.00
1592;DHT22;789;51.612;7.510;2023-07-31T05:47:22;18.50;1.00
1592;DHT22;789;51.612;7.510;2023-07-31T05:49:49;18.40;1.00
1592;DHT22;789;51.612;7.510;2023-07-31T05:52:18;18.40;1.00
1592;DHT22;789;51.612;7.510;2023-07-31T05:54:45;18.40;1.00
1592;DHT22;789;51.612;7.510;2023-07-31T05:57:14;18.40;1.00
1592;DHT22;789;51.612;7.510;2023-07-31T05:59:41;18.40;1.00
1592;DHT22;789;51.612;7.510;2023-07-31T06:02:09;18.40;1.00
1592;DHT22;789;51.612;7.510;2023-07-31T06:04:36;18.40;1.00
1592;DHT22;789;51.612;7.510;2023-07-31T06:07:03;18.40;1.00
1592;DHT22;789;51.612;7.510;2023-07-31T06:09:30;18.40;1.00
1592;DHT22;789;51.612;7.510;2023-07-31T06:11:57;18.40;1.00
1592;DHT22;789;51.612;7.510;2023-07-31T06:14:24;18.50;1.00
1592;DHT22;789;51.612;7.510;2023-07-31T06:16:52;18.50;1.00
1592;DHT22;789;51.612;7.510;2023-07-31T06:19:20;18.50;1.00
1592;DHT22;789;51.612;7.510;2023-07-31T06:21:48;18.60;1.00
1592;DHT22;789;51.612;7.510;2023-07-31T06:24:14;18.50;1.00
1592;DHT22;789;51.612;7.510;2023-07-31T06:26:44;18.40;1.00
1592;DHT22;789;51.612;7.510;2023-07-31T06:29:11;18.40;1.00
1592;DHT22;789;51.612;7.510;2023-07-31T06:31:38;18.40;1.00
1592;DHT22;789;51.612;7.510;2023-07-31T06:34:06;18.50;1.00
1592;DHT22;789;51.612;7.510;2023-07-31T06:36:34;18.40;1.00
1592;DHT22;789;51.612;7.510;2023-07-31T06:39:02;18.40;1.00
1592;DHT22;789;51.612;7.510;2023-07-31T06:41:53;18.40;1.00
1592;DHT22;789;51.612;7.510;2023-07-31T06:44:22;18.40;1.00
1592;DHT22;789;51.612;7.510;2023-07-31T06:46:49;18.30;1.00
1592;DHT22;789;51.612;7.510;2023-07-31T06:49:16;18.30;1.00
1592;DHT22;789;51.612;7.510;2023-07-31T06:51:44;18.40;1.00
1592;DHT22;789;51.612;7.510;2023-07-31T06:54:11;18.40;1.00
1592;DHT22;789;51.612;7.510;2023-07-31T06:56:38;18.40;1.00
1592;DHT22;789;51.612;7.510;2023-07-31T06:59:05;18.20;1.00
1592;DHT22;789;51.612;7.510;2023-07-31T07:01:33;18.40;1.00
1592;DHT22;789;51.612;7.510;2023-07-31T07:03:59;18.40;1.00
1592;DHT22;789;51.612;7.510;2023-07-31T07:06:26;18.50;1.00
1592;DHT22;789;51.612;7.510;2023-07-31T07:08:54;18.40;1.00
1592;DHT22;789;51.612;7.510;2023-07-31T07:11:22;18.40;1.00
1592;DHT22;789;51.612;7.510;2023-07-31T07:13:49;18.40;1.00
1592;DHT22;789;51.612;7.510;2023-07-31T07:16:16;18.50;1.00
1592;DHT22;789;51.612;7.510;2023-07-31T07:18:43;18.50;1.00
1592;DHT22;789;51.612;7.510;2023-07-31T07:21:09;18.50;1.00
1592;DHT22;789;51.612;7.510;2023-07-31T07:23:41;18.60;1.00
1592;DHT22;789;51.612;7.510;2023-07-31T07:26:15;18.80;1.00
1592;DHT22;789;51.612;7.510;2023-07-31T07:28:41;18.70;1.00
1592;DHT22;789;51.612;7.510;2023-07-31T07:31:10;18.60;1.00
1592;DHT22;789;51.612;7.510;2023-07-31T07:33:51;18.70;1.00
1592;DHT22;789;51.612;7.510;2023-07-31T07:36:39;18.70;1.00
1592;DHT22;789;51.612;7.510;2023-07-31T07:39:24;18.80;1.00
1592;DHT22;789;51.612;7.510;2023-07-31T07:41:54;18.60;1.00
1592;DHT22;789;51.612;7.510;2023-07-31T07:44:21;18.60;1.00
1592;DHT22;789;51.612;7.510;2023-07-31T07:46:50;18.60;1.00
1592;DHT22;789;51.612;7.510;2023-07-31T07:49:18;18.80;1.00
1592;DHT22;789;51.612;7.510;2023-07-31T07:51:58;18.70;1.00
1592;DHT22;789;51.612;7.510;2023-07-31T07:54:28;18.80;1.00
1592;DHT22;789;51.612;7.510;2023-07-31T07:56:59;18.70;1.00
1592;DHT22;789;51.612;7.510;2023-07-31T07:59:29;18.80;1.00
1592;DHT22;789;51.612;7.510;2023-07-31T08:01:56;18.60;1.00
1592;DHT22;789;51.612;7.510;2023-07-31T08:04:26;18.60;1.00
1592;DHT22;789;51.612;7.510;2023-07-31T08:06:52;18.40;1.00
1592;DHT22;789;51.612;7.510;2023-07-31T08:09:19;18.80;1.00
1592;DHT22;789;51.612;7.510;2023-07-31T08:11:46;18.60;1.00
1592;DHT22;789;51.612;7.510;2023-07-31T08:14:14;18.70;1.00
1592;DHT22;789;51.612;7.510;2023-07-31T08:16:41;18.80;1.00
1592;DHT22;789;51.612;7.510;2023-07-31T08:19:08;18.90;1.00
1592;DHT22;789;51.612;7.510;2023-07-31T08:21:35;18.70;1.00
1592;DHT22;789;51.612;7.510;2023-07-31T08:24:02;18.50;1.00
1592;DHT22;789;51.612;7.510;2023-07-31T08:26:29;18.80;1.00
1592;DHT22;789;51.612;7.510;2023-07-31T08:28:56;19.00;1.00
1592;DHT22;789;51.612;7.510;2023-07-31T08:31:24;18.70;1.00
1592;DHT22;789;51.612;7.510;2023-07-31T08:33:52;18.70;1.00
1592;DHT22;789;51.612;7.510;2023-07-31T08:36:19;19.00;1.00
1592;DHT22;789;51.612;7.510;2023-07-31T08:38:46;19.10;1.00
1592;DHT22;789;51.612;7.510;2023-07-31T08:41:13;19.10;1.00
1592;DHT22;789;51.612;7.510;2023-07-31T08:43:40;18.90;1.00
1592;DHT22;789;51.612;7.510;2023-07-31T08:46:07;18.80;1.00
1592;DHT22;789;51.612;7.510;2023-07-31T08:48:35;18.80;1.00
1592;DHT22;789;51.612;7.510;2023-07-31T08:51:04;18.80;1.00
1592;DHT22;789;51.612;7.510;2023-07-31T08:53:31;18.80;1.00
1592;DHT22;789;51.612;7.510;2023-07-31T08:55:59;18.70;1.00
1592;DHT22;789;51.612;7.510;2023-07-31T08:58:28;18.70;1.00
1592;DHT22;789;51.612;7.510;2023-07-31T09:00:58;18.60;1.00
1592;DHT22;789;51.612;7.510;2023-07-31T09:03:26;18.60;1.00
1592;DHT22;789;51.612;7.510;2023-07-31T09:05:56;18.60;1.00
1592;DHT22;789;51.612;7.510;2023-07-31T09:08:26;18.60;1.00
1592;DHT22;789;51.612;7.510;2023-07-31T09:10:59;18.60;1.00
1592;DHT22;789;51.612;7.510;2023-07-31T09:13:27;18.60;1.00
1592;DHT22;789;51.612;7.510;2023-07-31T09:15:54;18.60;1.00
1592;DHT22;789;51.612;7.510;2023-07-31T09:18:22;18.80;1.00
1592;DHT22;789;51.612;7.510;2023-07-31T09:21:01;18.80;1.00
1592;DHT22;789;51.612;7.510;2023-07-31T09:23:40;18.60;1.00
1592;DHT22;789;51.612;7.510;2023-07-31T09:26:09;18.60;1.00
1592;DHT22;789;51.612;7.510;2023-07-31T09:28:37;18.60;1.00
1592;DHT22;789;51.612;7.510;2023-07-31T09:31:04;18.70;1.00
1592;DHT22;789;51.612;7.510;2023-07-31T09:33:34;18.70;1.00
1592;DHT22;789;51.612;7.510;2023-07-31T09:36:21;18.60;1.00
1592;DHT22;789;51.612;7.510;2023-07-31T09:38:48;18.70;1.00
1592;DHT22;789;51.612;7.510;2023-07-31T09:41:15;18.70;1.00
1592;DHT22;789;51.612;7.510;2023-07-31T09:43:53;18.80;1.00
1592;DHT22;789;51.612;7.510;2023-07-31T09:46:20;18.60;1.00
1592;DHT22;789;51.612;7.510;2023-07-31T09:48:48;18.70;1.00
1592;DHT22;789;51.612;7.510;2023-07-31T09:51:15;18.50;1.00
1592;DHT22;789;51.612;7.510;2023-07-31T09:53:49;18.40;1.00
1592;DHT22;789;51.612;7.510;2023-07-31T09:56:17;18.40;1.00
1592;DHT22;789;51.612;7.510;2023-07-31T09:58:46;18.50;1.00
1592;DHT22;789;51.612;7.510;2023-07-31T10:01:14;18.60;1.00
1592;DHT22;789;51.612;7.510;2023-07-31T10:03:45;18.60;1.00
1592;DHT22;789;51.612;7.510;2023-07-31T10:06:13;18.70;1.00
1592;DHT22;789;51.612;7.510;2023-07-31T10:08:47;18.80;1.00
1592;DHT22;789;51.612;7.510;2023-07-31T10:11:18;18.90;1.00
1592;DHT22;789;51.612;7.510;2023-07-31T10:13:45;19.00;1.00
1592;DHT22;789;51.612;7.510;2023-07-31T10:16:13;19.00;1.00
1592;DHT22;789;51.612;7.510;2023-07-31T10:18:42;18.90;1.00
1592;DHT22;789;51.612;7.510;2023-07-31T10:21:09;18.90;1.00
1592;DHT22;789;51.612;7.510;2023-07-31T10:23:41;19.00;1.00
1592;DHT22;789;51.612;7.510;2023-07-31T10:26:10;19.10;1.00
1592;DHT22;789;51.612;7.510;2023-07-31T10:28:39;18.80;1.00
1592;DHT22;789;51.612;7.510;2023-07-31T10:31:07;19.10;1.00
1592;DHT22;789;51.612;7.510;2023-07-31T10:33:34;19.10;1.00
1592;DHT22;789;51.612;7.510;2023-07-31T10:36:14;19.10;1.00
1592;DHT22;789;51.612;7.510;2023-07-31T10:38:48;19.10;1.00
1592;DHT22;789;51.612;7.510;2023-07-31T10:41:19;19.10;1.00
1592;DHT22;789;51.612;7.510;2023-07-31T10:43:46;19.10;1.00
1592;DHT22;789;51.612;7.510;2023-07-31T10:46:14;19.10;1.00
1592;DHT22;789;51.612;7.510;2023-07-31T10:48:44;19.10;1.00
1592;DHT22;789;51.612;7.510;2023-07-31T10:51:11;19.20;1.00
1592;DHT22;789;51.612;7.510;2023-07-31T10:53:39;19.60;1.00
1592;DHT22;789;51.612;7.510;2023-07-31T10:56:08;19.30;1.00
1592;DHT22;789;51.612;7.510;2023-07-31T10:58:39;19.60;1.00
1592;DHT22;789;51.612;7.510;2023-07-31T11:01:06;19.40;1.00
1592;DHT22;789;51.612;7.510;2023-07-31T11:03:43;19.60;1.00
1592;DHT22;789;51.612;7.510;2023-07-31T11:06:14;19.40;1.00
1592;DHT22;789;51.612;7.510;2023-07-31T11:08:43;19.30;1.00
1592;DHT22;789;51.612;7.510;2023-07-31T11:11:12;19.30;1.00
1592;DHT22;789;51.612;7.510;2023-07-31T11:13:42;19.20;1.00
1592;DHT22;789;51.612;7.510;2023-07-31T11:16:11;19.20;1.00
1592;DHT22;789;51.612;7.510;2023-07-31T11:18:39;19.20;1.00
1592;DHT22;789;51.612;7.510;2023-07-31T11:21:07;19.00;1.00
1592;DHT22;789;51.612;7.510;2023-07-31T11:23:37;18.90;1.00
1592;DHT22;789;51.612;7.510;2023-07-31T11:26:05;18.90;1.00
1592;DHT22;789;51.612;7.510;2023-07-31T11:28:33;18.90;1.00
1592;DHT22;789;51.612;7.510;2023-07-31T11:31:02;18.80;1.00
1592;DHT22;789;51.612;7.510;2023-07-31T11:33:32;18.80;1.00
1592;DHT22;789;51.612;7.510;2023-07-31T11:35:59;18.80;1.00
1592;DHT22;789;51.612;7.510;2023-07-31T11:38:27;18.70;1.00
1592;DHT22;789;51.612;7.510;2023-07-31T11:40:55;18.80;1.00
1592;DHT22;789;51.612;7.510;2023-07-31T11:43:23;18.90;1.00
1592;DHT22;789;51.612;7.510;2023-07-31T11:45:52;19.00;1.00
1592;DHT22;789;51.612;7.510;2023-07-31T11:48:23;19.20;1.00
1592;DHT22;789;51.612;7.510;2023-07-31T11:50:53;19.30;1.00
1592;DHT22;789;51.612;7.510;2023-07-31T11:53:26;19.50;1.00
1592;DHT22;789;51.612;7.510;2023-07-31T11:55:55;19.80;1.00
1592;DHT22;789;51.612;7.510;2023-07-31T11:58:22;19.70;1.00
1592;DHT22;789;51.612;7.510;2023-07-31T12:00:49;19.80;1.00
1592;DHT22;789;51.612;7.510;2023-07-31T12:03:18;19.90;1.00
1592;DHT22;789;51.612;7.510;2023-07-31T12:05:48;20.10;1.00
1592;DHT22;789;51.612;7.510;2023-07-31T12:08:15;20.00;1.00
1592;DHT22;789;51.612;7.510;2023-07-31T12:10:44;20.40;1.00
1592;DHT22;789;51.612;7.510;2023-07-31T12:13:20;20.30;1.00
1592;DHT22;789;51.612;7.510;2023-07-31T12:15:54;20.50;1.00
1592;DHT22;789;51.612;7.510;2023-07-31T12:18:25;20.50;1.00
1592;DHT22;789;51.612;7.510;2023-07-31T12:20:58;20.70;1.00
1592;DHT22;789;51.612;7.510;2023-07-31T12:23:32;20.80;1.00
1592;DHT22;789;51.612;7.510;2023-07-31T12:26:02;20.80;1.00
1592;DHT22;789;51.612;7.510;2023-07-31T12:28:35;20.70;1.00
1592;DHT22;789;51.612;7.510;2023-07-31T12:31:05;20.80;1.00
1592;DHT22;789;51.612;7.510;2023-07-31T12:33:39;20.90;1.00
1592;DHT22;789;51.612;7.510;2023-07-31T12:36:11;21.20;1.00
1592;DHT22;789;51.612;7.510;2023-07-31T12:38:40;21.40;1.00
1592;DHT22;789;51.612;7.510;2023-07-31T12:41:13;21.60;1.00
1592;DHT22;789;51.612;7.510;2023-07-31T12:43:45;21.50;1.00
1592;DHT22;789;51.612;7.510;2023-07-31T12:46:14;21.20;1.00
1592;DHT22;789;51.612;7.510;2023-07-31T12:48:42;20.90;1.00
1592;DHT22;789;51.612;7.510;2023-07-31T12:51:27;20.80;1.00
1592;DHT22;789;51.612;7.510;2023-07-31T12:54:02;20.50;1.00
1592;DHT22;789;51.612;7.510;2023-07-31T12:56:30;20.60;1.00
1592;DHT22;789;51.612;7.510;2023-07-31T12:58:59;20.60;1.00
1592;DHT22;789;51.612;7.510;2023-07-31T13:01:26;20.50;1.00
1592;DHT22;789;51.612;7.510;2023-07-31T13:03:54;20.40;1.00
1592;DHT22;789;51.612;7.510;2023-07-31T13:06:31;20.30;1.00
1592;DHT22;789;51.612;7.510;2023-07-31T13:08:59;20.40;1.00
1592;DHT22;789;51.612;7.510;2023-07-31T13:11:27;20.30;1.00
1592;DHT22;789;51.612;7.510;2023-07-31T13:13:56;20.40;1.00
1592;DHT22;789;51.612;7.510;2023-07-31T13:16:23;20.30;1.00
1592;DHT22;789;51.612;7.510;2023-07-31T13:18:50;20.20;1.00
1592;DHT22;789;51.612;7.510;2023-07-31T13:21:18;20.30;1.00
1592;DHT22;789;51.612;7.510;2023-07-31T13:23:58;20.30;1.00
1592;DHT22;789;51.612;7.510;2023-07-31T13:26:29;20.50;1.00
1592;DHT22;789;51.612;7.510;2023-07-31T13:28:56;20.60;1.00
1592;DHT22;789;51.612;7.510;2023-07-31T13:31:30;20.70;1.00
1592;DHT22;789;51.612;7.510;2023-07-31T13:34:03;20.70;1.00
1592;DHT22;789;51.612;7.510;2023-07-31T13:36:32;20.80;1.00
1592;DHT22;789;51.612;7.510;2023-07-31T13:39:00;20.70;1.00
1592;DHT22;789;51.612;7.510;2023-07-31T13:41:29;20.60;1.00
1592;DHT22;789;51.612;7.510;2023-07-31T13:43:56;20.70;1.00
1592;DHT22;789;51.612;7.510;2023-07-31T13:46:23;20.90;1.00
1592;DHT22;789;51.612;7.510;2023-07-31T13:48:51;21.20;1.00
1592;DHT22;789;51.612;7.510;2023-07-31T13:51:20;20.90;1.00
1592;DHT22;789;51.612;7.510;2023-07-31T13:53:49;20.80;1.00
1592;DHT22;789;51.612;7.510;2023-07-31T13:56:17;20.70;1.00
1592;DHT22;789;51.612;7.510;2023-07-31T13:58:44;20.50;1.00
1592;DHT22;789;51.612;7.510;2023-07-31T14:01:11;20.50;1.00
1592;DHT22;789;51.612;7.510;2023-07-31T14:03:37;20.50;1.00
1592;DHT22;789;51.612;7.510;2023-07-31T14:06:04;20.50;1.00
1592;DHT22;789;51.612;7.510;2023-07-31T14:08:31;20.50;1.00
1592;DHT22;789;51.612;7.510;2023-07-31T14:10:58;20.50;1.00
1592;DHT22;789;51.612;7.510;2023-07-31T14:13:29;20.50;1.00
1592;DHT22;789;51.612;7.510;2023-07-31T14:15:57;20.40;1.00
1592;DHT22;789;51.612;7.510;2023-07-31T14:18:26;20.50;1.00
1592;DHT22;789;51.612;7.510;2023-07-31T14:21:00;20.50;1.00
1592;DHT22;789;51.612;7.510;2023-07-31T14:23:41;20.50;1.00
1592;DHT22;789;51.612;7.510;2023-07-31T14:26:42;20.70;1.00
1592;DHT22;789;51.612;7.510;2023-07-31T14:29:07;20.80;1.00
1592;DHT22;789;51.612;7.510;2023-07-31T14:31:58;21.00;1.00
1592;DHT22;789;51.612;7.510;2023-07-31T14:34:31;21.20;1.00
1592;DHT22;789;51.612;7.510;2023-07-31T14:37:10;21.50;1.00
1592;DHT22;789;51.612;7.510;2023-07-31T14:39:44;21.50;1.00
1592;DHT22;789;51.612;7.510;2023-07-31T14:45:49;21.60;1.00
1592;DHT22;789;51.612;7.510;2023-07-31T14:48:24;21.40;1.00
1592;DHT22;789;51.612;7.510;2023-07-31T14:51:03;21.30;1.00
1592;DHT22;789;51.612;7.510;2023-07-31T14:53:35;21.30;1.00
1592;DHT22;789;51.612;7.510;2023-07-31T14:56:17;21.30;1.00
1592;DHT22;789;51.612;7.510;2023-07-31T14:59:16;21.20;1.00
1592;DHT22;789;51.612;7.510;2023-07-31T15:02:14;21.20;1.00
1592;DHT22;789;51.612;7.510;2023-07-31T15:04:41;21.00;1.00
1592;DHT22;789;51.612;7.510;2023-07-31T15:07:08;21.20;1.00
1592;DHT22;789;51.612;7.510;2023-07-31T15:09:34;21.10;1.00
1592;DHT22;789;51.612;7.510;2023-07-31T15:12:01;20.90;1.00
1592;DHT22;789;51.612;7.510;2023-07-31T15:14:28;20.90;1.00
1592;DHT22;789;51.612;7.510;2023-07-31T15:16:58;20.90;1.00
1592;DHT22;789;51.612;7.510;2023-07-31T15:19:25;20.90;1.00
1592;DHT22;789;51.612;7.510;2023-07-31T15:21:54;20.70;1.00
1592;DHT22;789;51.612;7.510;2023-07-31T15:24:21;20.60;1.00
1592;DHT22;789;51.612;7.510;2023-07-31T15:26:47;20.60;1.00
1592;DHT22;789;51.612;7.510;2023-07-31T15:29:14;20.60;1.00
1592;DHT22;789;51.612;7.510;2023-07-31T15:31:45;20.60;1.00
1592;DHT22;789;51.612;7.510;2023-07-31T15:34:13;20.60;1.00
1592;DHT22;789;51.612;7.510;2023-07-31T15:36:41;20.70;1.00
1592;DHT22;789;51.612;7.510;2023-07-31T15:39:07;20.80;1.00
1592;DHT22;789;51.612;7.510;2023-07-31T15:41:34;20.80;1.00
1592;DHT22;789;51.612;7.510;2023-07-31T15:44:01;20.80;1.00
1592;DHT22;789;51.612;7.510;2023-07-31T15:46:28;20.90;1.00
1592;DHT22;789;51.612;7.510;2023-07-31T15:48:55;20.80;1.00
1592;DHT22;789;51.612;7.510;2023-07-31T15:51:24;20.80;1.00
1592;DHT22;789;51.612;7.510;2023-07-31T15:53:51;20.70;1.00
1592;DHT22;789;51.612;7.510;2023-07-31T15:56:18;20.60;1.00
1592;DHT22;789;51.612;7.510;2023-07-31T15:58:45;20.60;1.00
1592;DHT22;789;51.612;7.510;2023-07-31T16:01:12;20.60;1.00
1592;DHT22;789;51.612;7.510;2023-07-31T16:03:39;20.60;1.00
1592;DHT22;789;51.612;7.510;2023-07-31T16:06:06;20.60;1.00
1592;DHT22;789;51.612;7.510;2023-07-31T16:08:34;20.80;1.00
1592;DHT22;789;51.612;7.510;2023-07-31T16:11:06;20.80;1.00
1592;DHT22;789;51.612;7.510;2023-07-31T16:13:33;20.70;1.00
1592;DHT22;789;51.612;7.510;2023-07-31T16:16:00;20.80;1.00
1592;DHT22;789;51.612;7.510;2023-07-31T16:18:27;20.70;1.00
1592;DHT22;789;51.612;7.510;2023-07-31T16:20:54;20.70;1.00
1592;DHT22;789;51.612;7.510;2023-07-31T16:23:21;20.70;1.00
1592;DHT22;789;51.612;7.510;2023-07-31T16:25:49;20.70;1.00
1592;DHT22;789;51.612;7.510;2023-07-31T16:28:16;20.70;1.00
1592;DHT22;789;51.612;7.510;2023-07-31T16:30:42;20.70;1.00
1592;DHT22;789;51.612;7.510;2023-07-31T16:33:11;20.50;1.00
1592;DHT22;789;51.612;7.510;2023-07-31T16:35:38;20.50;1.00
1592;DHT22;789;51.612;7.510;2023-07-31T16:38:07;20.50;1.00
1592;DHT22;789;51.612;7.510;2023-07-31T16:40:34;20.50;1.00
1592;DHT22;789;51.612;7.510;2023-07-31T16:43:02;20.40;1.00
1592;DHT22;789;51.612;7.510;2023-07-31T16:45:29;20.40;1.00
1592;DHT22;789;51.612;7.510;2023-07-31T16:47:56;20.40;1.00
1592;DHT22;789;51.612;7.510;2023-07-31T16:50:23;20.20;1.00